Date,TemperatureHighF,TemperatureAvgF,TemperatureLowF,DewpointHighF,DewpointAvgF,DewpointLowF,HumidityHigh,HumidityAvg,HumidityLow,PressureMaxIn,PressureMinIn,WindSpeedMaxMPH,WindSpeedAvgMPH,GustSpeedMaxMPH,PrecipitationSumIn
2013-1-1,8.6,8.6,8.6,5.3,5.3,5.3,86,86,86,30.03,30.03,0,0,0,0.69
2013-1-2,8.6,8.6,8.6,5.3,5.3,5.3,86,86,86,30.03,30.03,0,0,0,0.24
2013-6-27,83.0,82.2,81.1,65.0,63.4,61.5,57,53,50,29.63,29.61,14,7,17,0.00
2013-6-28,70.0,68.4,67.9,70.0,68.4,67.9,100,100,100,29.59,29.58,0,0,0,0.00
2013-7-22,87.4,73.5,63.9,72.3,61.4,57.1,82,66,55,29.69,29.50,21,6,25,0.00
2013-7-23,73.0,65.3,58.9,62.6,58.8,54.0,100,81,52,29.88,29.69,13,4,16,0.00
2013-8-14,78.3,65.7,51.0,69.6,57.0,50.2,100,78,43,30.08,29.95,10,0,11,0.00
2013-8-15,83.0,68.2,56.3,77.5,59.9,55.0,100,80,42,29.99,29.90,7,0,8,0.00
2013-8-16,84.7,69.4,56.0,79.6,62.3,55.5,100,82,48,30.03,29.96,12,1,14,0.00
2013-8-17,83.2,69.9,56.2,76.1,60.6,48.5,100,76,47,30.05,29.93,16,2,19,0.00
2013-8-18,83.6,70.7,58.9,77.2,58.3,47.6,100,66,46,30.00,29.82,18,3,20,0.00
2013-8-19,69.9,68.6,67.3,66.8,65.4,63.7,91,89,85,29.83,29.77,5,0,5,0.00
2013-8-24,71.6,71.6,71.6,71.6,71.6,71.6,100,100,100,29.82,29.82,0,0,0,0.00
2013-8-25,71.6,71.6,71.6,71.6,71.6,71.6,100,100,100,29.82,29.82,0,0,0,0.00
2013-8-26,71.6,71.6,71.6,71.6,71.6,71.6,100,100,100,29.82,29.82,0,0,0,0.00
2013-8-27,71.6,71.6,71.6,71.6,71.6,71.6,100,100,100,29.82,29.82,0,0,0,0.00
2013-8-28,71.6,71.6,71.6,71.6,71.6,71.6,100,100,100,29.82,29.82,0,0,0,0.00
2013-8-29,93.6,83.5,75.1,85.4,80.7,75.1,100,92,71,29.73,29.65,14,2,20,0.21
2013-8-31,88.6,50.2,0.0,82.9,44.7,0.0,100,57,74,29.70,29.55,11,2,11,0.01
2013-9-1,74.9,72.2,69.9,74.9,69.5,62.4,100,92,77,29.87,29.52,11,3,11,0.00
2013-9-2,69.9,63.0,51.3,62.4,55.7,44.3,77,77,77,29.99,29.86,8,2,8,0.00
2013-9-3,80.7,58.2,51.3,72.8,49.5,44.3,100,74,55,29.96,29.80,7,2,7,0.00
2013-9-4,79.8,70.2,60.5,75.3,68.1,53.5,100,94,63,30.06,29.87,7,1,7,0.00
2013-9-5,81.6,67.9,59.0,78.8,58.4,46.6,100,77,44,30.13,29.98,7,2,7,0.00
2013-9-6,91.4,75.6,62.6,89.9,66.1,56.0,100,76,52,29.99,29.68,20,3,20,0.00
2013-9-7,90.3,82.8,0.0,78.6,67.2,0.0,70,59,54,29.92,29.67,12,4,12,0.00
2013-9-8,67.3,65.4,62.6,66.9,53.6,0.0,100,77,73,29.98,29.76,12,2,12,0.14
2013-9-9,91.8,82.7,66.9,91.8,82.7,66.9,100,100,100,29.76,29.47,12,0,12,0.05
2013-9-10,91.8,67.4,0.0,89.3,53.6,0.0,100,59,64,29.85,29.54,10,0,10,0.00
2013-9-11,83.8,65.0,56.4,62.6,54.8,28.8,93,73,34,29.95,29.78,17,2,17,0.00
2013-9-12,73.0,61.8,48.8,72.5,55.0,37.6,100,81,55,30.14,29.93,19,3,19,0.00
2013-9-13,49.2,47.1,0.0,49.2,46.9,0.0,100,96,100,30.18,29.95,0,0,0,0.00
2013-9-14,47.6,47.6,47.6,47.6,47.6,47.6,100,100,100,29.95,29.95,0,0,0,0.00
2013-9-22,67.3,53.9,37.5,52.0,46.7,37.2,99,79,56,30.01,29.87,19,7,19,0.00
2013-9-23,71.3,59.4,51.0,55.0,51.1,48.0,90,75,51,29.93,29.86,22,6,27,0.00
2013-9-24,73.3,56.9,46.0,56.5,50.9,45.3,99,83,50,29.97,29.90,17,2,17,0.00
2013-9-25,72.5,57.3,43.5,58.4,50.7,43.1,99,81,53,29.97,29.87,15,3,15,0.00
2013-9-26,76.5,62.2,48.7,61.3,55.1,47.5,96,79,57,29.93,29.82,24,6,24,0.00
2013-9-27,78.5,69.4,60.9,64.6,60.9,57.6,90,75,58,29.90,29.75,25,7,25,0.00
2013-9-28,72.4,59.5,42.4,61.8,54.2,41.5,98,83,68,29.87,29.53,26,6,26,0.30
2013-9-29,72.0,54.7,36.6,53.5,45.7,36.1,99,75,42,29.93,29.74,19,3,19,0.00
2013-9-30,73.7,63.4,54.6,56.7,51.5,47.3,83,66,49,29.74,29.56,19,4,19,0.00
2013-10-1,72.0,61.3,46.1,54.8,45.1,35.0,93,59,26,29.94,29.50,19,4,21,0.00
2013-10-2,74.0,52.3,33.4,51.8,43.3,32.6,98,77,28,30.03,29.88,20,4,20,0.22
2013-10-3,56.5,53.5,52.3,53.5,51.7,50.5,97,94,88,29.97,29.88,17,6,17,1.03
2013-10-4,58.6,53.6,51.4,53.0,51.1,50.0,97,91,79,30.04,29.90,29,9,29,0.01
2013-10-5,55.2,51.8,49.0,54.7,50.9,48.1,98,97,95,29.92,29.70,26,9,26,1.04
2013-10-6,53.2,47.2,37.5,49.3,45.9,37.0,99,95,86,29.81,29.66,20,5,20,0.03
2013-10-7,62.9,48.2,36.4,47.4,41.6,36.0,100,81,44,29.97,29.80,16,2,16,0.00
2013-10-8,75.7,58.2,39.0,50.9,45.7,37.8,97,67,40,29.96,29.76,25,4,25,0.00
2013-10-9,73.0,61.9,50.3,55.7,50.8,46.2,89,68,51,30.01,29.87,17,3,17,0.00
2013-10-10,75.3,62.7,46.4,55.7,50.4,44.0,92,66,44,30.01,29.87,21,6,21,0.00
2013-10-11,73.7,63.2,51.9,59.0,52.6,48.6,90,70,50,29.88,29.57,34,10,34,0.02
2013-10-12,62.1,50.9,44.2,57.8,45.7,41.9,93,83,71,30.13,29.60,26,6,28,0.03
2013-10-13,58.2,47.6,34.0,41.9,36.6,32.1,98,69,39,30.42,30.13,13,2,13,0.00
2013-10-14,50.4,42.4,32.8,43.4,37.9,31.7,97,85,67,30.43,30.05,18,4,18,0.14
2013-10-15,48.8,46.7,43.8,48.0,45.5,42.2,97,96,90,30.05,29.69,27,10,27,1.53
2013-10-16,53.6,44.0,33.2,42.7,38.4,32.2,97,82,52,29.94,29.84,18,5,18,0.00
2013-10-17,47.8,35.6,31.6,46.2,34.8,31.0,98,97,87,29.86,29.78,11,0,13,0.07
2013-10-18,49.9,42.6,35.7,39.7,35.6,29.2,96,78,47,29.95,29.84,13,4,16,0.08
2013-10-19,41.6,37.2,34.0,38.2,33.7,30.1,97,88,72,29.79,29.69,7,2,7,0.21
2013-10-20,34.5,30.4,26.2,33.6,29.7,25.4,98,97,96,29.84,29.69,13,2,13,0.17
2013-10-21,35.5,34.4,31.8,28.3,24.6,22.6,83,67,60,29.94,29.89,20,7,20,0.09
2013-10-22,39.4,36.0,31.4,30.5,28.4,25.9,86,74,63,30.04,29.97,12,4,12,0.09
2013-10-23,35.2,32.6,30.9,31.5,27.1,23.0,96,81,66,30.11,29.99,12,3,14,0.00
2013-10-24,40.5,34.5,29.4,32.9,28.3,24.2,89,78,67,30.28,30.11,13,5,17,0.00
2013-10-25,50.4,37.3,29.4,40.6,30.7,27.5,93,78,63,30.30,29.74,18,5,19,0.00
2013-10-26,44.1,41.1,36.8,32.0,30.9,29.4,75,67,59,30.07,29.80,20,7,20,0.00
2013-10-27,52.5,37.0,29.7,35.6,29.8,26.7,89,76,50,30.22,29.81,19,5,22,0.00
2013-10-28,38.5,29.9,27.5,26.6,22.7,20.9,77,74,62,30.50,30.32,14,6,15,0.00
2013-10-29,34.3,31.3,26.9,33.3,28.6,24.1,96,90,77,30.48,30.16,7,4,13,0.06
2013-10-30,44.2,39.6,34.3,43.9,39.0,33.3,99,98,96,30.16,29.70,6,3,11,0.01
2013-10-31,44.6,43.0,40.4,44.3,42.5,39.6,99,98,97,29.68,29.36,6,3,12,0.04
2013-11-1,42.0,39.3,35.9,39.6,37.1,33.5,97,92,77,29.82,29.38,17,3,17,0.00
2013-11-2,47.7,38.8,26.9,34.4,30.5,25.1,95,73,50,30.10,29.83,12,3,12,0.00
2013-11-3,50.2,32.0,26.9,36.0,28.6,25.5,96,88,57,30.13,29.92,24,4,24,0.00
2013-11-4,46.4,35.8,31.4,43.1,32.8,29.7,95,89,64,30.12,29.82,20,3,20,0.40
2013-11-5,39.7,31.7,24.0,32.4,28.9,22.8,97,90,55,30.25,30.08,8,1,8,0.00
2013-11-6,39.6,30.4,27.5,28.5,25.8,23.4,92,83,52,30.16,30.04,13,3,13,0.09
2013-11-7,38.7,28.6,20.4,26.8,22.8,18.7,93,80,52,30.23,30.17,11,1,16,0.01
2013-11-8,40.0,30.8,18.5,35.1,26.7,16.8,96,85,69,30.20,29.60,23,5,23,0.02
2013-11-9,40.6,38.1,35.7,36.6,32.8,27.9,97,81,67,30.16,29.60,27,9,27,0.01
2013-11-10,41.7,36.2,28.8,30.4,28.5,24.0,85,74,61,30.31,30.10,24,6,27,0.00
2013-11-11,32.5,20.4,12.0,25.5,10.8,6.7,81,66,51,30.76,30.14,25,10,25,0.00
2013-11-12,28.7,19.0,10.3,13.6,9.6,6.1,89,68,41,30.80,30.46,17,4,17,0.00
2013-11-13,47.3,32.4,17.6,32.3,25.9,13.6,91,78,51,30.44,29.85,11,3,24,0.00
2013-11-14,51.5,38.2,29.5,37.8,33.5,27.6,97,84,58,29.85,29.73,10,2,10,0.00
2013-11-15,52.2,40.1,26.2,39.3,34.8,25.5,98,82,59,29.84,29.63,13,3,13,0.00
2013-11-16,45.0,42.0,39.3,42.9,39.8,35.0,99,92,82,29.63,29.26,17,4,17,0.21
2013-11-17,44.7,39.4,28.3,44.4,36.8,23.2,99,91,80,29.76,29.26,28,8,28,0.00
2013-11-18,29.2,25.8,17.0,23.5,20.1,15.1,94,79,70,30.29,29.76,28,8,28,0.00
2013-11-19,41.2,29.8,14.6,30.1,22.6,12.7,94,76,57,30.32,29.92,26,7,26,0.00
2013-11-20,44.5,41.1,35.4,33.4,29.6,26.2,91,65,51,30.05,29.90,22,5,22,0.00
2013-11-21,35.4,29.2,20.8,34.8,24.6,14.4,98,83,68,30.55,30.05,22,8,22,0.00
2013-11-22,31.1,19.1,9.5,17.9,10.0,1.4,92,70,35,30.69,30.47,26,6,26,0.00
2013-11-23,16.9,9.1,1.9,5.6,2.2,-1.5,88,74,53,30.88,30.69,19,5,19,0.00
2013-11-24,31.1,19.2,1.1,18.7,9.9,-2.0,88,68,48,30.77,29.92,30,6,30,0.00
2013-11-25,38.7,32.2,26.3,28.9,22.5,14.9,88,68,51,30.08,29.85,29,9,29,0.00
2013-11-26,26.3,16.6,8.6,20.5,8.7,4.2,87,71,56,30.43,30.08,27,9,27,0.00
2013-11-27,21.6,14.2,2.1,12.7,7.9,-0.9,89,76,64,30.44,30.14,11,3,13,0.00
2013-11-28,24.2,18.5,6.1,16.7,12.4,3.5,90,77,63,30.56,30.13,16,4,18,0.00
2013-11-29,29.7,19.0,4.2,21.7,13.1,1.3,90,78,63,30.57,30.18,20,4,20,0.00
2013-11-30,36.9,28.1,20.6,26.5,22.7,17.9,92,80,65,30.21,30.05,11,2,11,0.00
2013-12-1,30.7,26.6,18.0,25.3,22.5,15.8,95,85,79,30.22,29.97,10,2,11,0.00
2013-12-2,32.6,29.1,23.8,31.9,27.8,21.8,98,95,91,29.97,29.66,16,6,16,0.02
2013-12-3,32.9,31.5,27.6,32.3,30.8,26.1,98,97,94,29.88,29.66,17,7,23,0.04
2013-12-4,29.3,26.5,18.9,28.4,25.3,16.7,97,95,92,29.86,29.44,21,8,21,0.00
2013-12-5,18.8,5.1,-8.2,16.6,0.8,-11.3,91,82,74,30.35,29.59,18,6,22,0.00
2013-12-6,2.5,-7.4,-15.3,-3.6,-11.4,-18.9,87,82,73,30.70,30.35,13,2,13,0.00
2013-12-7,-2.0,-14.2,-25.8,-9.3,-18.7,-30.3,84,80,70,30.79,30.68,15,2,15,0.00
2013-12-8,5.9,-5.4,-23.8,3.3,-8.7,-28.2,90,85,79,30.68,30.12,9,2,9,0.00
2013-12-9,-0.7,-5.2,-11.7,-3.6,-9.4,-15.4,88,82,69,30.15,29.96,20,3,20,0.01
2013-12-10,4.6,-2.0,-11.4,-2.0,-6.1,-14.9,89,82,72,30.35,29.88,18,4,18,0.00
2013-12-11,-1.3,-7.7,-15.2,-7.3,-12.9,-19.2,84,77,66,30.62,30.35,12,4,17,0.00
2013-12-12,12.4,3.4,-10.0,8.4,-1.1,-13.5,87,82,72,30.39,30.24,9,1,9,0.00
2013-12-13,12.3,6.2,3.3,8.6,1.6,-2.5,88,81,75,30.42,30.25,15,7,15,0.00
2013-12-14,11.4,6.7,0.3,6.7,3.0,-4.1,88,84,80,30.41,30.11,11,4,14,0.00
2013-12-15,-0.6,-7.6,-16.2,-4.8,-13.6,-20.1,84,75,60,30.25,30.14,15,4,20,0.00
2013-12-16,12.6,4.2,-5.2,10.6,0.2,-10.1,92,83,72,30.23,29.90,15,3,15,0.00
2013-12-17,27.4,16.1,-5.7,23.6,11.3,-8.8,96,81,63,30.13,29.87,29,6,29,0.00
2013-12-18,29.0,13.8,-5.1,20.0,9.2,-8.4,93,82,67,30.12,29.69,12,2,12,0.10
2013-12-19,19.2,12.7,8.3,16.5,8.1,3.4,95,82,70,30.19,29.86,23,9,23,0.00
2013-12-20,18.5,8.4,0.9,12.8,5.5,-1.8,91,87,78,30.15,29.92,13,3,14,0.01
2013-12-21,18.7,14.7,10.9,14.3,11.4,8.2,91,87,82,30.09,29.91,16,4,16,0.00
2013-12-22,17.6,14.2,6.8,15.2,11.2,3.8,90,88,84,30.26,30.02,15,8,17,0.00
2013-12-23,6.8,-1.0,-12.7,4.0,-4.8,-16.3,88,83,79,30.58,30.26,22,8,22,0.00
2013-12-24,8.6,-5.4,-26.1,5.7,-9.4,-30.7,89,82,71,30.56,30.21,16,3,16,0.00
2013-12-25,21.2,12.1,6.5,17.9,8.8,2.8,90,86,75,30.21,30.08,15,3,15,0.00
2013-12-26,17.7,12.9,6.3,13.6,9.6,3.8,92,86,79,30.23,30.14,7,1,7,0.00
2013-12-27,36.2,24.0,11.3,29.6,21.4,9.2,96,90,76,30.22,29.86,12,2,17,0.12
2013-12-28,29.8,25.8,11.5,29.0,24.5,8.2,97,95,85,30.10,29.72,36,6,36,0.01
2013-12-29,11.4,-6.2,-24.6,8.4,-12.8,-29.4,88,72,59,30.38,30.09,31,8,33,0.00
2013-12-30,-5.0,-15.2,-28.3,-8.3,-19.3,-32.8,86,81,78,30.39,30.30,4,0,5,0.00
2013-12-31,-4.0,-14.2,-26.6,-11.4,-19.3,-30.9,86,78,65,30.55,30.29,8,2,9,0.00
2014-1-1,-2.1,-8.2,-14.3,-8.9,-14.6,-19.9,77,73,65,30.63,30.55,10,4,10,0.00
2014-1-2,1.1,-11.8,-22.3,-14.1,-19.1,-26.6,82,70,47,30.62,30.45,9,2,11,0.00